sensor_id;sensor_type;location;lat;lon;timestamp;pressure;altitude;pressure_sealevel;temperature
24639;BMP180;1641;51.306;12.384;2023-02-27T00:02:20;101071.00;;;0.90
24639;BMP180;1641;51.306;12.384;2023-02-27T00:04:45;101063.00;;;1.00
24639;BMP180;1641;51.306;12.384;2023-02-27T00:07:10;101076.00;;;1.00
24639;BMP180;1641;51.306;12.384;2023-02-27T00:09:36;101059.00;;;1.20
24639;BMP180;1641;51.306;12.384;2023-02-27T00:12:02;101067.00;;;1.10
24639;BMP180;1641;51.306;12.384;2023-02-27T00:14:27;101043.00;;;1.00
24639;BMP180;1641;51.306;12.384;2023-02-27T00:16:53;101034.00;;;1.20
24639;BMP180;1641;51.306;12.384;2023-02-27T00:19:18;101068.00;;;1.00
24639;BMP180;1641;51.306;12.384;2023-02-27T00:21:43;101086.00;;;0.80
24639;BMP180;1641;51.306;12.384;2023-02-27T00:24:09;101077.00;;;0.90
24639;BMP180;1641;51.306;12.384;2023-02-27T00:26:34;101073.00;;;1.00
24639;BMP180;1641;51.306;12.384;2023-02-27T00:29:00;101077.00;;;0.90
24639;BMP180;1641;51.306;12.384;2023-02-27T00:31:25;101069.00;;;0.80
24639;BMP180;1641;51.306;12.384;2023-02-27T00:33:51;101081.00;;;0.80
24639;BMP180;1641;51.306;12.384;2023-02-27T00:36:16;101086.00;;;0.70
24639;BMP180;1641;51.306;12.384;2023-02-27T00:38:42;101093.00;;;0.60
24639;BMP180;1641;51.306;12.384;2023-02-27T00:41:07;101083.00;;;0.60
24639;BMP180;1641;51.306;12.384;2023-02-27T00:43:32;101084.00;;;0.50
24639;BMP180;1641;51.306;12.384;2023-02-27T00:45:57;101085.00;;;0.40
24639;BMP180;1641;51.306;12.384;2023-02-27T00:48:22;101089.00;;;0.20
24639;BMP180;1641;51.306;12.384;2023-02-27T00:50:48;101087.00;;;0.50
24639;BMP180;1641;51.306;12.384;2023-02-27T00:53:14;101086.00;;;0.60
24639;BMP180;1641;51.306;12.384;2023-02-27T00:55:39;101078.00;;;0.30
24639;BMP180;1641;51.306;12.384;2023-02-27T00:58:04;101085.00;;;0.20
24639;BMP180;1641;51.306;12.384;2023-02-27T01:00:30;101069.00;;;0.20
24639;BMP180;1641;51.306;12.384;2023-02-27T01:02:55;101077.00;;;0.30
24639;BMP180;1641;51.306;12.384;2023-02-27T01:05:20;101074.00;;;0.30
24639;BMP180;1641;51.306;12.384;2023-02-27T01:07:45;101071.00;;;0.30
24639;BMP180;1641;51.306;12.384;2023-02-27T01:10:11;101070.00;;;0.20
24639;BMP180;1641;51.306;12.384;2023-02-27T01:12:37;101065.00;;;0.20
24639;BMP180;1641;51.306;12.384;2023-02-27T01:15:04;101053.00;;;0.00
24639;BMP180;1641;51.306;12.384;2023-02-27T01:17:29;101084.00;;;0.20
24639;BMP180;1641;51.306;12.384;2023-02-27T01:19:55;101069.00;;;0.00
24639;BMP180;1641;51.306;12.384;2023-02-27T01:22:20;101072.00;;;0.30
24639;BMP180;1641;51.306;12.384;2023-02-27T01:24:45;101064.00;;;0.10
24639;BMP180;1641;51.306;12.384;2023-02-27T01:27:10;101076.00;;;-0.10
24639;BMP180;1641;51.306;12.384;2023-02-27T01:29:36;101068.00;;;0.00
24639;BMP180;1641;51.306;12.384;2023-02-27T01:32:01;101069.00;;;0.10
24639;BMP180;1641;51.306;12.384;2023-02-27T01:34:26;101037.00;;;0.40
24639;BMP180;1641;51.306;12.384;2023-02-27T01:36:52;101075.00;;;0.10
24639;BMP180;1641;51.306;12.384;2023-02-27T01:39:17;101076.00;;;0.30
24639;BMP180;1641;51.306;12.384;2023-02-27T01:41:42;101074.00;;;0.30
24639;BMP180;1641;51.306;12.384;2023-02-27T01:44:09;101076.00;;;0.60
24639;BMP180;1641;51.306;12.384;2023-02-27T01:46:36;101082.00;;;0.60
24639;BMP180;1641;51.306;12.384;2023-02-27T01:49:09;101083.00;;;0.70
24639;BMP180;1641;51.306;12.384;2023-02-27T01:51:50;101088.00;;;0.50
24639;BMP180;1641;51.306;12.384;2023-02-27T01:54:23;101068.00;;;0.20
24639;BMP180;1641;51.306;12.384;2023-02-27T01:56:50;101076.00;;;0.50
24639;BMP180;1641;51.306;12.384;2023-02-27T01:59:17;101091.00;;;0.50
24639;BMP180;1641;51.306;12.384;2023-02-27T02:01:43;101086.00;;;0.70
24639;BMP180;1641;51.306;12.384;2023-02-27T02:04:18;101081.00;;;0.80
24639;BMP180;1641;51.306;12.384;2023-02-27T02:06:51;101086.00;;;0.80
24639;BMP180;1641;51.306;12.384;2023-02-27T02:09:20;101088.00;;;0.90
24639;BMP180;1641;51.306;12.384;2023-02-27T02:11:46;101084.00;;;1.00
24639;BMP180;1641;51.306;12.384;2023-02-27T02:14:11;101094.00;;;1.00
24639;BMP180;1641;51.306;12.384;2023-02-27T02:17:02;101101.00;;;1.10
24639;BMP180;1641;51.306;12.384;2023-02-27T02:22:44;101087.00;;;0.70
24639;BMP180;1641;51.306;12.384;2023-02-27T02:25:57;101104.00;;;0.60
24639;BMP180;1641;51.306;12.384;2023-02-27T02:34:16;101082.00;;;1.30
24639;BMP180;1641;51.306;12.384;2023-02-27T02:42:18;101077.00;;;1.40
24639;BMP180;1641;51.306;12.384;2023-02-27T02:45:08;101078.00;;;1.70
24639;BMP180;1641;51.306;12.384;2023-02-27T02:53:05;101081.00;;;2.00
24639;BMP180;1641;51.306;12.384;2023-02-27T02:55:44;101075.00;;;2.20
24639;BMP180;1641;51.306;12.384;2023-02-27T02:58:21;101079.00;;;2.10
24639;BMP180;1641;51.306;12.384;2023-02-27T03:00:57;101083.00;;;1.90
24639;BMP180;1641;51.306;12.384;2023-02-27T03:03:27;101079.00;;;1.60
24639;BMP180;1641;51.306;12.384;2023-02-27T03:06:04;101086.00;;;1.60
24639;BMP180;1641;51.306;12.384;2023-02-27T03:08:34;101065.00;;;1.50
24639;BMP180;1641;51.306;12.384;2023-02-27T03:11:02;101085.00;;;1.50
24639;BMP180;1641;51.306;12.384;2023-02-27T03:16:13;101101.00;;;1.20
24639;BMP180;1641;51.306;12.384;2023-02-27T03:21:29;101096.00;;;1.00
24639;BMP180;1641;51.306;12.384;2023-02-27T03:23:58;101100.00;;;1.10
24639;BMP180;1641;51.306;12.384;2023-02-27T03:26:32;101090.00;;;1.20
24639;BMP180;1641;51.306;12.384;2023-02-27T03:29:00;101080.00;;;1.20
24639;BMP180;1641;51.306;12.384;2023-02-27T03:31:33;101083.00;;;1.10
24639;BMP180;1641;51.306;12.384;2023-02-27T03:34:07;101096.00;;;1.00
24639;BMP180;1641;51.306;12.384;2023-02-27T03:36:54;101099.00;;;1.30
24639;BMP180;1641;51.306;12.384;2023-02-27T03:39:28;101081.00;;;1.40
24639;BMP180;1641;51.306;12.384;2023-02-27T03:44:45;101102.00;;;1.00
24639;BMP180;1641;51.306;12.384;2023-02-27T03:47:11;101109.00;;;1.40
24639;BMP180;1641;51.306;12.384;2023-02-27T03:49:36;101104.00;;;1.20
24639;BMP180;1641;51.306;12.384;2023-02-27T03:52:02;101112.00;;;1.60
24639;BMP180;1641;51.306;12.384;2023-02-27T03:54:35;101113.00;;;1.40
24639;BMP180;1641;51.306;12.384;2023-02-27T03:57:03;101026.00;;;1.50
24639;BMP180;1641;51.306;12.384;2023-02-27T03:59:30;101120.00;;;1.50
24639;BMP180;1641;51.306;12.384;2023-02-27T04:01:56;101123.00;;;1.20
24639;BMP180;1641;51.306;12.384;2023-02-27T04:04:23;101109.00;;;1.30
24639;BMP180;1641;51.306;12.384;2023-02-27T04:12:45;101137.00;;;1.90
24639;BMP180;1641;51.306;12.384;2023-02-27T04:20:56;101150.00;;;2.10
24639;BMP180;1641;51.306;12.384;2023-02-27T04:23:36;101146.00;;;1.80
24639;BMP180;1641;51.306;12.384;2023-02-27T04:26:14;101146.00;;;1.70
24639;BMP180;1641;51.306;12.384;2023-02-27T04:31:24;101162.00;;;1.80
24639;BMP180;1641;51.306;12.384;2023-02-27T04:34:09;101157.00;;;2.00
24639;BMP180;1641;51.306;12.384;2023-02-27T04:36:49;101141.00;;;2.00
24639;BMP180;1641;51.306;12.384;2023-02-27T04:39:23;101092.00;;;2.10
24639;BMP180;1641;51.306;12.384;2023-02-27T04:41:56;101164.00;;;2.30
24639;BMP180;1641;51.306;12.384;2023-02-27T04:44:24;101167.00;;;2.30
24639;BMP180;1641;51.306;12.384;2023-02-27T04:46:50;101164.00;;;2.50
24639;BMP180;1641;51.306;12.384;2023-02-27T04:51:58;101062.00;;;2.70
24639;BMP180;1641;51.306;12.384;2023-02-27T04:57:19;101088.00;;;2.60
24639;BMP180;1641;51.306;12.384;2023-02-27T04:59:49;101110.00;;;2.40
24639;BMP180;1641;51.306;12.384;2023-02-27T05:02:24;101170.00;;;2.20
24639;BMP180;1641;51.306;12.384;2023-02-27T05:04:59;101132.00;;;2.50
24639;BMP180;1641;51.306;12.384;2023-02-27T05:07:30;101173.00;;;2.70
24639;BMP180;1641;51.306;12.384;2023-02-27T05:10:14;101169.00;;;2.60
24639;BMP180;1641;51.306;12.384;2023-02-27T05:12:47;101161.00;;;2.30
24639;BMP180;1641;51.306;12.384;2023-02-27T05:15:22;101164.00;;;2.50
24639;BMP180;1641;51.306;12.384;2023-02-27T05:18:02;101178.00;;;2.70
24639;BMP180;1641;51.306;12.384;2023-02-27T05:26:15;101151.00;;;2.20
24639;BMP180;1641;51.306;12.384;2023-02-27T05:28:50;101165.00;;;2.20
24639;BMP180;1641;51.306;12.384;2023-02-27T05:31:36;101169.00;;;2.10
24639;BMP180;1641;51.306;12.384;2023-02-27T05:34:13;101169.00;;;2.20
24639;BMP180;1641;51.306;12.384;2023-02-27T05:36:52;101166.00;;;2.00
24639;BMP180;1641;51.306;12.384;2023-02-27T05:39:22;101158.00;;;2.30
24639;BMP180;1641;51.306;12.384;2023-02-27T05:41:52;101191.00;;;2.50
24639;BMP180;1641;51.306;12.384;2023-02-27T05:44:24;101190.00;;;2.60
24639;BMP180;1641;51.306;12.384;2023-02-27T05:46:55;101199.00;;;2.50
24639;BMP180;1641;51.306;12.384;2023-02-27T05:49:28;101201.00;;;2.40
24639;BMP180;1641;51.306;12.384;2023-02-27T05:51:59;101176.00;;;2.50
24639;BMP180;1641;51.306;12.384;2023-02-27T05:54:37;101196.00;;;2.40
24639;BMP180;1641;51.306;12.384;2023-02-27T05:57:12;101190.00;;;2.50
24639;BMP180;1641;51.306;12.384;2023-02-27T06:00:02;101185.00;;;2.10
24639;BMP180;1641;51.306;12.384;2023-02-27T06:02:28;101205.00;;;2.10
24639;BMP180;1641;51.306;12.384;2023-02-27T06:04:54;101190.00;;;2.80
24639;BMP180;1641;51.306;12.384;2023-02-27T06:07:19;101202.00;;;2.70
24639;BMP180;1641;51.306;12.384;2023-02-27T06:09:46;101198.00;;;2.20
24639;BMP180;1641;51.306;12.384;2023-02-27T06:12:12;101195.00;;;2.40
24639;BMP180;1641;51.306;12.384;2023-02-27T06:14:37;101203.00;;;2.50
24639;BMP180;1641;51.306;12.384;2023-02-27T06:17:02;101188.00;;;2.30
24639;BMP180;1641;51.306;12.384;2023-02-27T06:19:28;101211.00;;;2.10
24639;BMP180;1641;51.306;12.384;2023-02-27T06:21:54;101214.00;;;1.90
24639;BMP180;1641;51.306;12.384;2023-02-27T06:24:19;101212.00;;;1.90
24639;BMP180;1641;51.306;12.384;2023-02-27T06:26:47;101218.00;;;2.00
24639;BMP180;1641;51.306;12.384;2023-02-27T06:29:13;101218.00;;;2.00
24639;BMP180;1641;51.306;12.384;2023-02-27T06:31:38;101223.00;;;1.90
24639;BMP180;1641;51.306;12.384;2023-02-27T06:34:03;101223.00;;;2.40
24639;BMP180;1641;51.306;12.384;2023-02-27T06:36:28;101232.00;;;2.40
24639;BMP180;1641;51.306;12.384;2023-02-27T06:38:54;101223.00;;;2.30
24639;BMP180;1641;51.306;12.384;2023-02-27T06:41:20;101231.00;;;2.10
24639;BMP180;1641;51.306;12.384;2023-02-27T06:43:48;101192.00;;;2.20
24639;BMP180;1641;51.306;12.384;2023-02-27T06:46:13;101236.00;;;2.20
24639;BMP180;1641;51.306;12.384;2023-02-27T06:48:39;101216.00;;;2.40
24639;BMP180;1641;51.306;12.384;2023-02-27T06:51:04;101233.00;;;2.50
24639;BMP180;1641;51.306;12.384;2023-02-27T06:53:30;101240.00;;;2.50
24639;BMP180;1641;51.306;12.384;2023-02-27T06:55:58;101242.00;;;2.70
24639;BMP180;1641;51.306;12.384;2023-02-27T06:58:23;101250.00;;;2.80
24639;BMP180;1641;51.306;12.384;2023-02-27T07:00:49;101245.00;;;2.60
24639;BMP180;1641;51.306;12.384;2023-02-27T07:03:14;101138.00;;;2.70
24639;BMP180;1641;51.306;12.384;2023-02-27T07:05:40;101245.00;;;2.50
24639;BMP180;1641;51.306;12.384;2023-02-27T07:08:06;101247.00;;;2.40
24639;BMP180;1641;51.306;12.384;2023-02-27T07:10:34;101255.00;;;2.40
24639;BMP180;1641;51.306;12.384;2023-02-27T07:12:59;101244.00;;;2.60
24639;BMP180;1641;51.306;12.384;2023-02-27T07:15:24;101246.00;;;2.70
24639;BMP180;1641;51.306;12.384;2023-02-27T07:17:49;101251.00;;;2.60
24639;BMP180;1641;51.306;12.384;2023-02-27T07:20:15;101239.00;;;2.70
24639;BMP180;1641;51.306;12.384;2023-02-27T07:22:40;101241.00;;;2.80
24639;BMP180;1641;51.306;12.384;2023-02-27T07:25:15;101223.00;;;3.00
24639;BMP180;1641;51.306;12.384;2023-02-27T07:27:40;101243.00;;;2.90
24639;BMP180;1641;51.306;12.384;2023-02-27T07:30:08;101256.00;;;2.80
24639;BMP180;1641;51.306;12.384;2023-02-27T07:32:34;101256.00;;;2.80
24639;BMP180;1641;51.306;12.384;2023-02-27T07:35:00;101241.00;;;3.20
24639;BMP180;1641;51.306;12.384;2023-02-27T07:37:25;101259.00;;;3.00
24639;BMP180;1641;51.306;12.384;2023-02-27T07:39:50;101242.00;;;2.80
24639;BMP180;1641;51.306;12.384;2023-02-27T07:42:15;101248.00;;;2.70
24639;BMP180;1641;51.306;12.384;2023-02-27T07:44:40;101249.00;;;2.80
24639;BMP180;1641;51.306;12.384;2023-02-27T07:47:06;101254.00;;;3.30
24639;BMP180;1641;51.306;12.384;2023-02-27T07:49:31;101255.00;;;3.50
24639;BMP180;1641;51.306;12.384;2023-02-27T07:51:56;101213.00;;;3.50
24639;BMP180;1641;51.306;12.384;2023-02-27T07:54:40;101251.00;;;3.50
24639;BMP180;1641;51.306;12.384;2023-02-27T07:57:06;101242.00;;;3.70
24639;BMP180;1641;51.306;12.384;2023-02-27T07:59:31;101207.00;;;3.70
24639;BMP180;1641;51.306;12.384;2023-02-27T08:01:56;101268.00;;;3.80
24639;BMP180;1641;51.306;12.384;2023-02-27T08:04:28;101271.00;;;3.90
24639;BMP180;1641;51.306;12.384;2023-02-27T08:06:53;101269.00;;;4.70
24639;BMP180;1641;51.306;12.384;2023-02-27T08:09:18;101261.00;;;4.50
24639;BMP180;1641;51.306;12.384;2023-02-27T08:11:44;101263.00;;;4.30
24639;BMP180;1641;51.306;12.384;2023-02-27T08:14:09;101235.00;;;4.70
24639;BMP180;1641;51.306;12.384;2023-02-27T08:16:34;101274.00;;;4.60
24639;BMP180;1641;51.306;12.384;2023-02-27T08:19:00;101277.00;;;4.90
24639;BMP180;1641;51.306;12.384;2023-02-27T08:21:26;101282.00;;;4.90
24639;BMP180;1641;51.306;12.384;2023-02-27T08:23:54;101279.00;;;4.70
24639;BMP180;1641;51.306;12.384;2023-02-27T08:26:25;101291.00;;;3.80
24639;BMP180;1641;51.306;12.384;2023-02-27T08:28:54;101290.00;;;4.10
24639;BMP180;1641;51.306;12.384;2023-02-27T08:31:25;101297.00;;;4.40
24639;BMP180;1641;51.306;12.384;2023-02-27T08:33:50;101208.00;;;3.40
24639;BMP180;1641;51.306;12.384;2023-02-27T08:36:19;101275.00;;;3.70
24639;BMP180;1641;51.306;12.384;2023-02-27T08:38:44;101258.00;;;3.40
24639;BMP180;1641;51.306;12.384;2023-02-27T08:41:12;101265.00;;;3.30
24639;BMP180;1641;51.306;12.384;2023-02-27T08:43:51;101274.00;;;2.70
24639;BMP180;1641;51.306;12.384;2023-02-27T08:46:16;101282.00;;;2.90
24639;BMP180;1641;51.306;12.384;2023-02-27T08:48:47;101287.00;;;3.20
24639;BMP180;1641;51.306;12.384;2023-02-27T08:51:12;101290.00;;;3.50
24639;BMP180;1641;51.306;12.384;2023-02-27T08:53:37;101306.00;;;3.50
24639;BMP180;1641;51.306;12.384;2023-02-27T08:56:03;101300.00;;;3.90
24639;BMP180;1641;51.306;12.384;2023-02-27T08:58:31;101297.00;;;4.20
24639;BMP180;1641;51.306;12.384;2023-02-27T09:01:00;101255.00;;;3.50
24639;BMP180;1641;51.306;12.384;2023-02-27T09:03:26;101297.00;;;3.70
24639;BMP180;1641;51.306;12.384;2023-02-27T09:05:53;101294.00;;;3.80
24639;BMP180;1641;51.306;12.384;2023-02-27T09:08:21;101300.00;;;4.10
24639;BMP180;1641;51.306;12.384;2023-02-27T09:10:56;101285.00;;;4.50
24639;BMP180;1641;51.306;12.384;2023-02-27T09:13:22;101288.00;;;4.10
24639;BMP180;1641;51.306;12.384;2023-02-27T09:15:47;101307.00;;;3.80
24639;BMP180;1641;51.306;12.384;2023-02-27T09:18:18;101292.00;;;4.10
24639;BMP180;1641;51.306;12.384;2023-02-27T09:20:44;101305.00;;;4.20
24639;BMP180;1641;51.306;12.384;2023-02-27T09:23:15;101282.00;;;3.90
24639;BMP180;1641;51.306;12.384;2023-02-27T09:25:41;101188.00;;;3.10
24639;BMP180;1641;51.306;12.384;2023-02-27T09:28:12;101274.00;;;3.20
24639;BMP180;1641;51.306;12.384;2023-02-27T09:30:37;101310.00;;;3.40
24639;BMP180;1641;51.306;12.384;2023-02-27T09:33:24;101304.00;;;3.70
24639;BMP180;1641;51.306;12.384;2023-02-27T09:35:51;101248.00;;;4.30
24639;BMP180;1641;51.306;12.384;2023-02-27T09:38:16;101307.00;;;4.40
24639;BMP180;1641;51.306;12.384;2023-02-27T09:40:54;101256.00;;;3.30
24639;BMP180;1641;51.306;12.384;2023-02-27T09:46:06;101317.00;;;3.00
24639;BMP180;1641;51.306;12.384;2023-02-27T09:48:42;101318.00;;;3.30
24639;BMP180;1641;51.306;12.384;2023-02-27T09:51:27;101259.00;;;4.40
24639;BMP180;1641;51.306;12.384;2023-02-27T09:53:57;101298.00;;;4.70
24639;BMP180;1641;51.306;12.384;2023-02-27T09:56:28;101277.00;;;3.50
24639;BMP180;1641;51.306;12.384;2023-02-27T09:59:12;101310.00;;;3.80
24639;BMP180;1641;51.306;12.384;2023-02-27T10:01:45;101315.00;;;4.10
24639;BMP180;1641;51.306;12.384;2023-02-27T10:07:19;101326.00;;;3.80
24639;BMP180;1641;51.306;12.384;2023-02-27T10:09:59;101321.00;;;4.10
24639;BMP180;1641;51.306;12.384;2023-02-27T10:12:44;101320.00;;;4.30
24639;BMP180;1641;51.306;12.384;2023-02-27T10:15:25;101321.00;;;4.40
24639;BMP180;1641;51.306;12.384;2023-02-27T10:18:09;101267.00;;;4.10
24639;BMP180;1641;51.306;12.384;2023-02-27T10:20:41;101324.00;;;4.50
24639;BMP180;1641;51.306;12.384;2023-02-27T10:23:33;101317.00;;;5.20
24639;BMP180;1641;51.306;12.384;2023-02-27T10:26:25;101332.00;;;5.20
24639;BMP180;1641;51.306;12.384;2023-02-27T10:29:14;101317.00;;;5.00
24639;BMP180;1641;51.306;12.384;2023-02-27T10:31:42;101304.00;;;4.00
24639;BMP180;1641;51.306;12.384;2023-02-27T10:34:14;101297.00;;;4.30
24639;BMP180;1641;51.306;12.384;2023-02-27T10:36:49;101325.00;;;4.40
24639;BMP180;1641;51.306;12.384;2023-02-27T10:39:19;101336.00;;;4.50
24639;BMP180;1641;51.306;12.384;2023-02-27T10:41:45;101261.00;;;4.60
24639;BMP180;1641;51.306;12.384;2023-02-27T10:44:14;101273.00;;;4.50
24639;BMP180;1641;51.306;12.384;2023-02-27T10:46:44;101289.00;;;4.00
24639;BMP180;1641;51.306;12.384;2023-02-27T10:49:20;101276.00;;;4.10
24639;BMP180;1641;51.306;12.384;2023-02-27T10:52:08;101329.00;;;4.70
24639;BMP180;1641;51.306;12.384;2023-02-27T10:54:35;101344.00;;;5.10
24639;BMP180;1641;51.306;12.384;2023-02-27T10:57:05;101309.00;;;5.30
24639;BMP180;1641;51.306;12.384;2023-02-27T10:59:34;101336.00;;;4.90
24639;BMP180;1641;51.306;12.384;2023-02-27T11:02:50;101330.00;;;4.70
24639;BMP180;1641;51.306;12.384;2023-02-27T11:05:06;101338.00;;;4.60
24639;BMP180;1641;51.306;12.384;2023-02-27T11:07:35;101333.00;;;4.60
24639;BMP180;1641;51.306;12.384;2023-02-27T11:12:36;101259.00;;;4.90
24639;BMP180;1641;51.306;12.384;2023-02-27T11:17:40;101252.00;;;5.10
24639;BMP180;1641;51.306;12.384;2023-02-27T11:23:14;101320.00;;;4.80
24639;BMP180;1641;51.306;12.384;2023-02-27T11:25:43;101305.00;;;5.00
24639;BMP180;1641;51.306;12.384;2023-02-27T11:30:41;101322.00;;;4.50
24639;BMP180;1641;51.306;12.384;2023-02-27T11:33:16;101308.00;;;4.60
24639;BMP180;1641;51.306;12.384;2023-02-27T11:35:53;101302.00;;;4.50
24639;BMP180;1641;51.306;12.384;2023-02-27T11:38:22;101312.00;;;4.60
24639;BMP180;1641;51.306;12.384;2023-02-27T11:40:54;101306.00;;;4.60
24639;BMP180;1641;51.306;12.384;2023-02-27T11:43:23;101262.00;;;4.90
24639;BMP180;1641;51.306;12.384;2023-02-27T11:46:00;101267.00;;;5.40
24639;BMP180;1641;51.306;12.384;2023-02-27T11:48:34;101302.00;;;5.50
24639;BMP180;1641;51.306;12.384;2023-02-27T11:51:11;101252.00;;;5.10
24639;BMP180;1641;51.306;12.384;2023-02-27T11:56:12;101293.00;;;4.40
24639;BMP180;1641;51.306;12.384;2023-02-27T11:58:49;101295.00;;;4.70
24639;BMP180;1641;51.306;12.384;2023-02-27T12:01:25;101288.00;;;4.90
24639;BMP180;1641;51.306;12.384;2023-02-27T12:04:01;101291.00;;;5.00
24639;BMP180;1641;51.306;12.384;2023-02-27T12:06:35;101283.00;;;5.00
24639;BMP180;1641;51.306;12.384;2023-02-27T12:09:17;101233.00;;;5.50
24639;BMP180;1641;51.306;12.384;2023-02-27T12:11:46;101287.00;;;5.50
24639;BMP180;1641;51.306;12.384;2023-02-27T12:14:24;101242.00;;;5.00
24639;BMP180;1641;51.306;12.384;2023-02-27T12:17:08;101243.00;;;4.80
24639;BMP180;1641;51.306;12.384;2023-02-27T12:19:52;101262.00;;;4.80
24639;BMP180;1641;51.306;12.384;2023-02-27T12:22:24;101285.00;;;4.90
24639;BMP180;1641;51.306;12.384;2023-02-27T12:24:59;101242.00;;;5.20
24639;BMP180;1641;51.306;12.384;2023-02-27T12:27:48;101291.00;;;5.20
24639;BMP180;1641;51.306;12.384;2023-02-27T12:30:21;101294.00;;;5.20
24639;BMP180;1641;51.306;12.384;2023-02-27T12:32:57;101286.00;;;5.10
24639;BMP180;1641;51.306;12.384;2023-02-27T12:35:31;101294.00;;;5.10
24639;BMP180;1641;51.306;12.384;2023-02-27T12:38:00;101286.00;;;4.30
24639;BMP180;1641;51.306;12.384;2023-02-27T12:40:38;101289.00;;;4.20
24639;BMP180;1641;51.306;12.384;2023-02-27T12:46:03;101274.00;;;4.70
24639;BMP180;1641;51.306;12.384;2023-02-27T12:48:45;101285.00;;;4.10
24639;BMP180;1641;51.306;12.384;2023-02-27T12:51:32;101285.00;;;4.00
24639;BMP180;1641;51.306;12.384;2023-02-27T13:05:25;101247.00;;;4.30
24639;BMP180;1641;51.306;12.384;2023-02-27T13:10:56;101286.00;;;4.20
24639;BMP180;1641;51.306;12.384;2023-02-27T13:13:32;101281.00;;;4.70
24639;BMP180;1641;51.306;12.384;2023-02-27T13:16:12;101284.00;;;5.10
24639;BMP180;1641;51.306;12.384;2023-02-27T13:18:47;101272.00;;;5.40
24639;BMP180;1641;51.306;12.384;2023-02-27T13:24:21;101244.00;;;5.00
24639;BMP180;1641;51.306;12.384;2023-02-27T13:26:52;101241.00;;;4.50
24639;BMP180;1641;51.306;12.384;2023-02-27T13:29:21;101275.00;;;4.70
24639;BMP180;1641;51.306;12.384;2023-02-27T13:32:02;101281.00;;;5.00
24639;BMP180;1641;51.306;12.384;2023-02-27T13:34:36;101274.00;;;5.80
24639;BMP180;1641;51.306;12.384;2023-02-27T13:37:06;101206.00;;;5.40
24639;BMP180;1641;51.306;12.384;2023-02-27T13:44:52;101284.00;;;4.50
24639;BMP180;1641;51.306;12.384;2023-02-27T13:47:39;101282.00;;;4.50
24639;BMP180;1641;51.306;12.384;2023-02-27T13:52:54;101283.00;;;4.70
24639;BMP180;1641;51.306;12.384;2023-02-27T13:55:26;101270.00;;;4.80
24639;BMP180;1641;51.306;12.384;2023-02-27T13:57:54;101262.00;;;5.00
24639;BMP180;1641;51.306;12.384;2023-02-27T14:00:22;101272.00;;;5.60
24639;BMP180;1641;51.306;12.384;2023-02-27T14:02:54;101271.00;;;5.80
24639;BMP180;1641;51.306;12.384;2023-02-27T14:05:33;101268.00;;;6.10
24639;BMP180;1641;51.306;12.384;2023-02-27T14:08:28;101263.00;;;5.30
24639;BMP180;1641;51.306;12.384;2023-02-27T14:11:00;101207.00;;;4.70
24639;BMP180;1641;51.306;12.384;2023-02-27T14:13:57;101269.00;;;4.80
24639;BMP180;1641;51.306;12.384;2023-02-27T14:22:00;101241.00;;;5.50
24639;BMP180;1641;51.306;12.384;2023-02-27T14:24:27;101281.00;;;5.20
24639;BMP180;1641;51.306;12.384;2023-02-27T14:26:55;101276.00;;;5.60
24639;BMP180;1641;51.306;12.384;2023-02-27T14:29:27;101262.00;;;5.80
24639;BMP180;1641;51.306;12.384;2023-02-27T14:31:57;101270.00;;;5.30
24639;BMP180;1641;51.306;12.384;2023-02-27T14:34:24;101242.00;;;5.20
24639;BMP180;1641;51.306;12.384;2023-02-27T14:36:52;101253.00;;;5.40
24639;BMP180;1641;51.306;12.384;2023-02-27T14:42:22;101277.00;;;4.70
24639;BMP180;1641;51.306;12.384;2023-02-27T14:44:50;101288.00;;;4.20
24639;BMP180;1641;51.306;12.384;2023-02-27T14:47:27;101292.00;;;4.20
24639;BMP180;1641;51.306;12.384;2023-02-27T14:49:53;101311.00;;;3.70
24639;BMP180;1641;51.306;12.384;2023-02-27T14:52:26;101258.00;;;3.30
24639;BMP180;1641;51.306;12.384;2023-02-27T14:55:18;101315.00;;;3.30
24639;BMP180;1641;51.306;12.384;2023-02-27T15:00:37;101328.00;;;3.00
24639;BMP180;1641;51.306;12.384;2023-02-27T15:03:16;101277.00;;;3.00
24639;BMP180;1641;51.306;12.384;2023-02-27T15:05:42;101278.00;;;3.30
24639;BMP180;1641;51.306;12.384;2023-02-27T15:08:17;101215.00;;;3.30
24639;BMP180;1641;51.306;12.384;2023-02-27T15:10:44;101268.00;;;3.50
24639;BMP180;1641;51.306;12.384;2023-02-27T15:13:31;101269.00;;;3.60
24639;BMP180;1641;51.306;12.384;2023-02-27T15:18:49;101300.00;;;4.10
24639;BMP180;1641;51.306;12.384;2023-02-27T15:21:17;101204.00;;;4.50
24639;BMP180;1641;51.306;12.384;2023-02-27T15:23:43;101290.00;;;4.80
24639;BMP180;1641;51.306;12.384;2023-02-27T15:26:11;101316.00;;;4.90
24639;BMP180;1641;51.306;12.384;2023-02-27T15:28:38;101271.00;;;4.90
24639;BMP180;1641;51.306;12.384;2023-02-27T15:31:04;101318.00;;;5.00
24639;BMP180;1641;51.306;12.384;2023-02-27T15:33:32;101253.00;;;5.20
24639;BMP180;1641;51.306;12.384;2023-02-27T15:35:58;101278.00;;;5.20
24639;BMP180;1641;51.306;12.384;2023-02-27T15:38:27;101248.00;;;5.20
24639;BMP180;1641;51.306;12.384;2023-02-27T15:40:53;101327.00;;;5.20
24639;BMP180;1641;51.306;12.384;2023-02-27T15:43:20;101272.00;;;5.60
24639;BMP180;1641;51.306;12.384;2023-02-27T15:45:46;101316.00;;;5.30
24639;BMP180;1641;51.306;12.384;2023-02-27T15:48:13;101289.00;;;5.30
24639;BMP180;1641;51.306;12.384;2023-02-27T15:50:43;101319.00;;;5.30
24639;BMP180;1641;51.306;12.384;2023-02-27T15:53:12;101262.00;;;5.30
24639;BMP180;1641;51.306;12.384;2023-02-27T15:55:44;101332.00;;;5.20
24639;BMP180;1641;51.306;12.384;2023-02-27T15:58:22;101281.00;;;4.70
24639;BMP180;1641;51.306;12.384;2023-02-27T16:00:57;101239.00;;;4.60
24639;BMP180;1641;51.306;12.384;2023-02-27T16:03:27;101291.00;;;4.60
24639;BMP180;1641;51.306;12.384;2023-02-27T16:05:55;101320.00;;;4.60
24639;BMP180;1641;51.306;12.384;2023-02-27T16:08:21;101316.00;;;4.20
24639;BMP180;1641;51.306;12.384;2023-02-27T16:10:47;101301.00;;;4.80
24639;BMP180;1641;51.306;12.384;2023-02-27T16:13:30;101293.00;;;5.20
24639;BMP180;1641;51.306;12.384;2023-02-27T16:18:47;101345.00;;;3.60
24639;BMP180;1641;51.306;12.384;2023-02-27T16:21:14;101351.00;;;3.70
24639;BMP180;1641;51.306;12.384;2023-02-27T16:23:41;101349.00;;;3.60
24639;BMP180;1641;51.306;12.384;2023-02-27T16:26:32;101349.00;;;3.80
24639;BMP180;1641;51.306;12.384;2023-02-27T16:29:20;101313.00;;;3.60